ANN weather

Ana María Airport
Codazzi, César Department, Colombia

Public forecast

Using degrees Celsius for public forecast. Weather courtesy of forecast.io.

METAR (pilot weather report)

Report is more than 2 hours old.

Closest report is Alfonso López Pumarejo Airport, 24.0 nm (44.4 km) N. Retrieved 2019/04/22 04:00 UTC (2 hours ago):

SKVP 220400Z 05011KT 9999 FEW020 SCT100 28/21 A2997

TAF (pilot weather forecast)

Forecast is more than 12 hours old.

Closest forecast is Almirante Padilla Airport, 91.8 nm (170.1 km) NNE. Retrieved 2013/12/29 00:30 UTC (5 years ago):

TAF SKRH 262200Z 2700/2724 07010KT 9999 FEW020 SCT200 TEMPO 2701/2705 FEW017 TEMPO 2709/2711 CAVOK TEMPO 2719/2723 12007KT FEW015 TX32/2718Z TN23/2710Z